sensor_id;sensor_type;location;lat;lon;timestamp;temperature;humidity
21830;DHT22;11077;50.264;6.798;2022-11-25T00:00:01;6.60;99.90
21830;DHT22;11077;50.264;6.798;2022-11-25T00:02:42;6.70;99.90
21830;DHT22;11077;50.264;6.798;2022-11-25T00:05:11;6.60;99.90
21830;DHT22;11077;50.264;6.798;2022-11-25T00:07:38;6.60;99.90
21830;DHT22;11077;50.264;6.798;2022-11-25T00:10:06;6.70;99.90
21830;DHT22;11077;50.264;6.798;2022-11-25T00:12:33;6.70;99.90
21830;DHT22;11077;50.264;6.798;2022-11-25T00:15:00;6.70;99.90
21830;DHT22;11077;50.264;6.798;2022-11-25T00:17:28;6.70;99.90
21830;DHT22;11077;50.264;6.798;2022-11-25T00:19:55;6.70;99.90
21830;DHT22;11077;50.264;6.798;2022-11-25T00:22:27;6.60;99.90
21830;DHT22;11077;50.264;6.798;2022-11-25T00:24:54;6.70;99.90
21830;DHT22;11077;50.264;6.798;2022-11-25T00:27:22;6.70;99.90
21830;DHT22;11077;50.264;6.798;2022-11-25T00:29:49;6.60;99.90
21830;DHT22;11077;50.264;6.798;2022-11-25T00:32:17;6.60;99.90
21830;DHT22;11077;50.264;6.798;2022-11-25T00:34:44;6.60;99.90
21830;DHT22;11077;50.264;6.798;2022-11-25T00:37:11;6.60;99.90
21830;DHT22;11077;50.264;6.798;2022-11-25T00:39:40;6.60;99.90
21830;DHT22;11077;50.264;6.798;2022-11-25T00:42:08;6.60;99.90
21830;DHT22;11077;50.264;6.798;2022-11-25T00:44:53;6.50;99.90
21830;DHT22;11077;50.264;6.798;2022-11-25T00:47:21;6.60;99.90
21830;DHT22;11077;50.264;6.798;2022-11-25T00:49:50;6.60;99.90
21830;DHT22;11077;50.264;6.798;2022-11-25T00:52:19;6.50;99.90
21830;DHT22;11077;50.264;6.798;2022-11-25T00:54:49;6.50;99.90
21830;DHT22;11077;50.264;6.798;2022-11-25T00:57:17;6.50;99.90
21830;DHT22;11077;50.264;6.798;2022-11-25T00:59:45;6.50;99.90
21830;DHT22;11077;50.264;6.798;2022-11-25T01:02:14;6.50;99.90
21830;DHT22;11077;50.264;6.798;2022-11-25T01:04:43;6.50;99.90
21830;DHT22;11077;50.264;6.798;2022-11-25T01:07:14;6.60;99.90
21830;DHT22;11077;50.264;6.798;2022-11-25T01:09:41;6.60;99.90
21830;DHT22;11077;50.264;6.798;2022-11-25T01:12:10;6.60;99.90
21830;DHT22;11077;50.264;6.798;2022-11-25T01:14:38;6.60;99.90
21830;DHT22;11077;50.264;6.798;2022-11-25T01:17:05;6.60;99.90
21830;DHT22;11077;50.264;6.798;2022-11-25T01:19:33;6.60;99.90
21830;DHT22;11077;50.264;6.798;2022-11-25T01:22:03;6.60;99.90
21830;DHT22;11077;50.264;6.798;2022-11-25T01:24:30;6.60;99.90
21830;DHT22;11077;50.264;6.798;2022-11-25T01:26:57;6.60;99.90
21830;DHT22;11077;50.264;6.798;2022-11-25T01:29:26;6.60;99.90
21830;DHT22;11077;50.264;6.798;2022-11-25T01:31:54;6.60;99.90
21830;DHT22;11077;50.264;6.798;2022-11-25T01:34:24;6.60;99.90
21830;DHT22;11077;50.264;6.798;2022-11-25T01:36:52;6.60;99.90
21830;DHT22;11077;50.264;6.798;2022-11-25T01:39:20;6.60;99.90
21830;DHT22;11077;50.264;6.798;2022-11-25T01:41:48;6.60;99.90
21830;DHT22;11077;50.264;6.798;2022-11-25T01:44:17;6.60;99.90
21830;DHT22;11077;50.264;6.798;2022-11-25T01:46:59;6.60;99.90
21830;DHT22;11077;50.264;6.798;2022-11-25T01:49:35;6.50;99.90
21830;DHT22;11077;50.264;6.798;2022-11-25T01:52:08;6.50;99.90
21830;DHT22;11077;50.264;6.798;2022-11-25T01:54:45;6.50;99.90
21830;DHT22;11077;50.264;6.798;2022-11-25T01:57:17;6.50;99.90
21830;DHT22;11077;50.264;6.798;2022-11-25T01:59:50;6.40;99.90
21830;DHT22;11077;50.264;6.798;2022-11-25T02:02:20;6.40;99.90
21830;DHT22;11077;50.264;6.798;2022-11-25T02:04:48;6.50;99.90
21830;DHT22;11077;50.264;6.798;2022-11-25T02:07:19;6.50;99.90
21830;DHT22;11077;50.264;6.798;2022-11-25T02:09:50;6.50;99.90
21830;DHT22;11077;50.264;6.798;2022-11-25T02:12:19;6.40;99.90
21830;DHT22;11077;50.264;6.798;2022-11-25T02:14:48;6.40;99.90
21830;DHT22;11077;50.264;6.798;2022-11-25T02:17:18;6.40;99.90
21830;DHT22;11077;50.264;6.798;2022-11-25T02:19:55;6.40;99.90
21830;DHT22;11077;50.264;6.798;2022-11-25T02:22:33;6.30;99.90
21830;DHT22;11077;50.264;6.798;2022-11-25T02:25:13;6.30;99.90
21830;DHT22;11077;50.264;6.798;2022-11-25T02:27:43;6.30;99.90
21830;DHT22;11077;50.264;6.798;2022-11-25T02:30:12;6.20;99.90
21830;DHT22;11077;50.264;6.798;2022-11-25T02:32:42;6.20;99.90
21830;DHT22;11077;50.264;6.798;2022-11-25T02:35:26;6.20;99.90
21830;DHT22;11077;50.264;6.798;2022-11-25T02:37:56;6.10;99.90
21830;DHT22;11077;50.264;6.798;2022-11-25T02:40:26;6.10;99.90
21830;DHT22;11077;50.264;6.798;2022-11-25T02:42:57;6.00;99.90
21830;DHT22;11077;50.264;6.798;2022-11-25T02:45:32;6.00;99.90
21830;DHT22;11077;50.264;6.798;2022-11-25T02:48:01;6.00;99.90
21830;DHT22;11077;50.264;6.798;2022-11-25T02:50:28;6.00;99.90
21830;DHT22;11077;50.264;6.798;2022-11-25T02:52:56;6.00;99.90
21830;DHT22;11077;50.264;6.798;2022-11-25T02:55:23;6.00;99.90
21830;DHT22;11077;50.264;6.798;2022-11-25T02:57:52;5.90;99.90
21830;DHT22;11077;50.264;6.798;2022-11-25T03:00:19;5.90;99.90
21830;DHT22;11077;50.264;6.798;2022-11-25T03:02:47;6.00;99.90
21830;DHT22;11077;50.264;6.798;2022-11-25T03:05:20;5.90;99.90
21830;DHT22;11077;50.264;6.798;2022-11-25T03:07:47;5.90;99.90
21830;DHT22;11077;50.264;6.798;2022-11-25T03:10:17;5.80;99.90
21830;DHT22;11077;50.264;6.798;2022-11-25T03:12:45;5.90;99.90
21830;DHT22;11077;50.264;6.798;2022-11-25T03:15:14;5.90;99.90
21830;DHT22;11077;50.264;6.798;2022-11-25T03:17:41;5.90;99.90
21830;DHT22;11077;50.264;6.798;2022-11-25T03:20:10;5.90;99.90
21830;DHT22;11077;50.264;6.798;2022-11-25T03:22:48;5.90;99.90
21830;DHT22;11077;50.264;6.798;2022-11-25T03:25:18;5.90;99.90
21830;DHT22;11077;50.264;6.798;2022-11-25T03:27:49;5.90;99.90
21830;DHT22;11077;50.264;6.798;2022-11-25T03:30:19;5.90;99.90
21830;DHT22;11077;50.264;6.798;2022-11-25T03:32:49;5.90;99.90
21830;DHT22;11077;50.264;6.798;2022-11-25T03:35:17;5.90;99.90
21830;DHT22;11077;50.264;6.798;2022-11-25T03:37:45;5.90;99.90
21830;DHT22;11077;50.264;6.798;2022-11-25T03:40:14;6.00;99.90
21830;DHT22;11077;50.264;6.798;2022-11-25T03:42:43;5.90;99.90
21830;DHT22;11077;50.264;6.798;2022-11-25T03:45:12;5.90;99.90
21830;DHT22;11077;50.264;6.798;2022-11-25T03:47:43;5.90;99.90
21830;DHT22;11077;50.264;6.798;2022-11-25T03:50:12;6.00;99.90
21830;DHT22;11077;50.264;6.798;2022-11-25T03:52:40;5.90;99.90
21830;DHT22;11077;50.264;6.798;2022-11-25T03:55:09;5.90;99.90
21830;DHT22;11077;50.264;6.798;2022-11-25T03:57:40;5.90;99.90
21830;DHT22;11077;50.264;6.798;2022-11-25T04:00:10;5.90;99.90
21830;DHT22;11077;50.264;6.798;2022-11-25T04:02:45;5.90;99.90
21830;DHT22;11077;50.264;6.798;2022-11-25T04:05:14;5.90;99.90
21830;DHT22;11077;50.264;6.798;2022-11-25T04:07:42;5.90;99.90
21830;DHT22;11077;50.264;6.798;2022-11-25T04:10:10;6.00;99.90
21830;DHT22;11077;50.264;6.798;2022-11-25T04:12:38;6.00;99.90
21830;DHT22;11077;50.264;6.798;2022-11-25T04:15:18;6.00;99.90
21830;DHT22;11077;50.264;6.798;2022-11-25T04:17:52;6.00;99.90
21830;DHT22;11077;50.264;6.798;2022-11-25T04:20:19;6.00;99.90
21830;DHT22;11077;50.264;6.798;2022-11-25T04:22:55;6.00;99.90
21830;DHT22;11077;50.264;6.798;2022-11-25T04:25:22;6.00;99.90
21830;DHT22;11077;50.264;6.798;2022-11-25T04:27:50;6.00;99.90
21830;DHT22;11077;50.264;6.798;2022-11-25T04:30:24;6.00;99.90
21830;DHT22;11077;50.264;6.798;2022-11-25T04:32:54;6.00;99.90
21830;DHT22;11077;50.264;6.798;2022-11-25T04:35:21;6.10;99.90
21830;DHT22;11077;50.264;6.798;2022-11-25T04:37:52;6.10;99.90
21830;DHT22;11077;50.264;6.798;2022-11-25T04:40:21;6.10;99.90
21830;DHT22;11077;50.264;6.798;2022-11-25T04:42:57;6.20;99.90
21830;DHT22;11077;50.264;6.798;2022-11-25T04:45:25;6.10;99.90
21830;DHT22;11077;50.264;6.798;2022-11-25T04:47:57;6.20;99.90
21830;DHT22;11077;50.264;6.798;2022-11-25T04:50:24;6.20;99.90
21830;DHT22;11077;50.264;6.798;2022-11-25T04:53:07;6.20;99.90
21830;DHT22;11077;50.264;6.798;2022-11-25T04:55:34;6.20;99.90
21830;DHT22;11077;50.264;6.798;2022-11-25T04:58:08;6.20;99.90
21830;DHT22;11077;50.264;6.798;2022-11-25T05:00:39;6.20;99.90
21830;DHT22;11077;50.264;6.798;2022-11-25T05:03:08;6.20;99.90
21830;DHT22;11077;50.264;6.798;2022-11-25T05:05:37;6.20;99.90
21830;DHT22;11077;50.264;6.798;2022-11-25T05:08:05;6.20;99.90
21830;DHT22;11077;50.264;6.798;2022-11-25T05:10:32;6.10;99.90
21830;DHT22;11077;50.264;6.798;2022-11-25T05:13:00;6.20;99.90
21830;DHT22;11077;50.264;6.798;2022-11-25T05:15:30;6.10;99.90
21830;DHT22;11077;50.264;6.798;2022-11-25T05:18:03;6.10;99.90
21830;DHT22;11077;50.264;6.798;2022-11-25T05:20:43;6.10;99.90
21830;DHT22;11077;50.264;6.798;2022-11-25T05:23:13;6.10;99.90
21830;DHT22;11077;50.264;6.798;2022-11-25T05:25:41;6.10;99.90
21830;DHT22;11077;50.264;6.798;2022-11-25T05:28:41;6.10;99.90
21830;DHT22;11077;50.264;6.798;2022-11-25T05:31:09;6.10;99.90
21830;DHT22;11077;50.264;6.798;2022-11-25T05:33:37;6.10;99.90
21830;DHT22;11077;50.264;6.798;2022-11-25T05:36:09;6.10;99.90
21830;DHT22;11077;50.264;6.798;2022-11-25T05:38:42;6.10;99.90
21830;DHT22;11077;50.264;6.798;2022-11-25T05:41:12;6.10;99.90
21830;DHT22;11077;50.264;6.798;2022-11-25T05:43:41;6.10;99.90
21830;DHT22;11077;50.264;6.798;2022-11-25T05:46:09;6.10;99.90
21830;DHT22;11077;50.264;6.798;2022-11-25T05:48:43;6.10;99.90
21830;DHT22;11077;50.264;6.798;2022-11-25T05:51:12;6.20;99.90
21830;DHT22;11077;50.264;6.798;2022-11-25T05:53:39;6.10;99.90
21830;DHT22;11077;50.264;6.798;2022-11-25T05:56:08;6.10;99.90
21830;DHT22;11077;50.264;6.798;2022-11-25T05:58:54;6.10;99.90
21830;DHT22;11077;50.264;6.798;2022-11-25T06:01:29;6.10;99.90
21830;DHT22;11077;50.264;6.798;2022-11-25T06:03:59;6.10;99.90
21830;DHT22;11077;50.264;6.798;2022-11-25T06:06:29;6.10;99.90
21830;DHT22;11077;50.264;6.798;2022-11-25T06:08:57;6.10;99.90
21830;DHT22;11077;50.264;6.798;2022-11-25T06:11:24;6.10;99.90
21830;DHT22;11077;50.264;6.798;2022-11-25T06:13:52;6.10;99.90
21830;DHT22;11077;50.264;6.798;2022-11-25T06:16:21;6.10;99.90
21830;DHT22;11077;50.264;6.798;2022-11-25T06:19:00;6.10;99.90
21830;DHT22;11077;50.264;6.798;2022-11-25T06:21:32;6.10;99.90
21830;DHT22;11077;50.264;6.798;2022-11-25T06:23:59;6.10;99.90
21830;DHT22;11077;50.264;6.798;2022-11-25T06:26:28;6.10;99.90
21830;DHT22;11077;50.264;6.798;2022-11-25T06:28:59;6.10;99.90
21830;DHT22;11077;50.264;6.798;2022-11-25T06:31:26;6.10;99.90
21830;DHT22;11077;50.264;6.798;2022-11-25T06:34:15;6.10;99.90
21830;DHT22;11077;50.264;6.798;2022-11-25T06:36:44;6.10;99.90
21830;DHT22;11077;50.264;6.798;2022-11-25T06:39:11;6.10;99.90
21830;DHT22;11077;50.264;6.798;2022-11-25T06:41:39;6.20;99.90
21830;DHT22;11077;50.264;6.798;2022-11-25T06:44:06;6.20;99.90
21830;DHT22;11077;50.264;6.798;2022-11-25T06:46:33;6.20;99.90
21830;DHT22;11077;50.264;6.798;2022-11-25T06:49:01;6.20;99.90
21830;DHT22;11077;50.264;6.798;2022-11-25T06:51:28;6.20;99.90
21830;DHT22;11077;50.264;6.798;2022-11-25T06:53:56;6.20;99.90
21830;DHT22;11077;50.264;6.798;2022-11-25T06:56:26;6.20;99.90
21830;DHT22;11077;50.264;6.798;2022-11-25T06:58:54;6.20;99.90
21830;DHT22;11077;50.264;6.798;2022-11-25T07:01:23;6.20;99.90
21830;DHT22;11077;50.264;6.798;2022-11-25T07:03:52;6.20;99.90
21830;DHT22;11077;50.264;6.798;2022-11-25T07:06:19;6.20;99.90
21830;DHT22;11077;50.264;6.798;2022-11-25T07:08:47;6.20;99.90
21830;DHT22;11077;50.264;6.798;2022-11-25T07:11:18;6.20;99.90
21830;DHT22;11077;50.264;6.798;2022-11-25T07:13:46;6.20;99.90
21830;DHT22;11077;50.264;6.798;2022-11-25T07:16:14;6.20;99.90
21830;DHT22;11077;50.264;6.798;2022-11-25T07:18:41;6.30;99.90
21830;DHT22;11077;50.264;6.798;2022-11-25T07:21:11;6.30;99.90
21830;DHT22;11077;50.264;6.798;2022-11-25T07:23:39;6.30;99.90
21830;DHT22;11077;50.264;6.798;2022-11-25T07:26:08;6.20;99.90
21830;DHT22;11077;50.264;6.798;2022-11-25T07:28:38;6.20;99.90
21830;DHT22;11077;50.264;6.798;2022-11-25T07:31:06;6.20;99.90
21830;DHT22;11077;50.264;6.798;2022-11-25T07:33:34;6.20;99.90
21830;DHT22;11077;50.264;6.798;2022-11-25T07:36:03;6.30;99.90
21830;DHT22;11077;50.264;6.798;2022-11-25T07:38:31;6.20;99.90
21830;DHT22;11077;50.264;6.798;2022-11-25T07:41:04;6.20;99.90
21830;DHT22;11077;50.264;6.798;2022-11-25T07:43:32;6.20;99.90
21830;DHT22;11077;50.264;6.798;2022-11-25T07:46:10;6.20;99.90
21830;DHT22;11077;50.264;6.798;2022-11-25T07:48:37;6.10;99.90
21830;DHT22;11077;50.264;6.798;2022-11-25T07:51:07;6.10;99.90
21830;DHT22;11077;50.264;6.798;2022-11-25T07:53:39;6.10;99.90
21830;DHT22;11077;50.264;6.798;2022-11-25T07:56:06;6.10;99.90
21830;DHT22;11077;50.264;6.798;2022-11-25T07:58:33;6.10;99.90
21830;DHT22;11077;50.264;6.798;2022-11-25T08:01:01;6.10;99.90
21830;DHT22;11077;50.264;6.798;2022-11-25T08:03:31;6.10;99.90
21830;DHT22;11077;50.264;6.798;2022-11-25T08:05:59;6.20;99.90
21830;DHT22;11077;50.264;6.798;2022-11-25T08:08:27;6.30;99.90
21830;DHT22;11077;50.264;6.798;2022-11-25T08:10:54;6.30;99.90
21830;DHT22;11077;50.264;6.798;2022-11-25T08:13:22;6.30;99.90
21830;DHT22;11077;50.264;6.798;2022-11-25T08:15:49;6.30;99.90
21830;DHT22;11077;50.264;6.798;2022-11-25T08:18:17;6.30;99.90
21830;DHT22;11077;50.264;6.798;2022-11-25T08:20:45;6.30;99.90
21830;DHT22;11077;50.264;6.798;2022-11-25T08:23:13;6.30;99.90
21830;DHT22;11077;50.264;6.798;2022-11-25T08:25:40;6.40;99.90
21830;DHT22;11077;50.264;6.798;2022-11-25T08:28:08;6.40;99.90
21830;DHT22;11077;50.264;6.798;2022-11-25T08:30:35;6.40;99.90
21830;DHT22;11077;50.264;6.798;2022-11-25T08:33:03;6.40;99.90
21830;DHT22;11077;50.264;6.798;2022-11-25T08:35:32;6.50;99.90
21830;DHT22;11077;50.264;6.798;2022-11-25T08:38:04;6.40;99.90
21830;DHT22;11077;50.264;6.798;2022-11-25T08:40:33;6.40;99.90
21830;DHT22;11077;50.264;6.798;2022-11-25T08:43:01;6.50;99.90
21830;DHT22;11077;50.264;6.798;2022-11-25T08:45:28;6.50;99.90
21830;DHT22;11077;50.264;6.798;2022-11-25T08:47:56;6.60;99.90
21830;DHT22;11077;50.264;6.798;2022-11-25T08:50:24;6.50;99.90
21830;DHT22;11077;50.264;6.798;2022-11-25T08:52:51;6.50;99.90
21830;DHT22;11077;50.264;6.798;2022-11-25T08:55:20;6.60;99.90
21830;DHT22;11077;50.264;6.798;2022-11-25T08:57:50;6.60;99.90
21830;DHT22;11077;50.264;6.798;2022-11-25T09:00:18;6.60;99.90
21830;DHT22;11077;50.264;6.798;2022-11-25T09:02:46;6.60;99.90
21830;DHT22;11077;50.264;6.798;2022-11-25T09:05:15;6.60;99.90
21830;DHT22;11077;50.264;6.798;2022-11-25T09:07:43;6.60;99.90
21830;DHT22;11077;50.264;6.798;2022-11-25T09:10:14;6.70;99.90
21830;DHT22;11077;50.264;6.798;2022-11-25T09:12:43;6.70;99.90
21830;DHT22;11077;50.264;6.798;2022-11-25T09:15:10;6.60;99.90
21830;DHT22;11077;50.264;6.798;2022-11-25T09:17:38;6.60;99.90
21830;DHT22;11077;50.264;6.798;2022-11-25T09:20:06;6.60;99.90
21830;DHT22;11077;50.264;6.798;2022-11-25T09:22:33;6.60;99.90
21830;DHT22;11077;50.264;6.798;2022-11-25T09:25:01;6.60;99.90
21830;DHT22;11077;50.264;6.798;2022-11-25T09:27:29;6.60;99.90
21830;DHT22;11077;50.264;6.798;2022-11-25T09:29:58;6.60;99.90
21830;DHT22;11077;50.264;6.798;2022-11-25T09:32:25;6.70;99.90
21830;DHT22;11077;50.264;6.798;2022-11-25T09:34:52;6.70;99.90
21830;DHT22;11077;50.264;6.798;2022-11-25T09:37:20;6.70;99.90
21830;DHT22;11077;50.264;6.798;2022-11-25T09:39:47;6.80;99.90
21830;DHT22;11077;50.264;6.798;2022-11-25T09:42:28;6.90;99.90
21830;DHT22;11077;50.264;6.798;2022-11-25T09:45:21;6.80;99.90
21830;DHT22;11077;50.264;6.798;2022-11-25T09:48:20;6.90;99.90
21830;DHT22;11077;50.264;6.798;2022-11-25T09:51:00;7.00;99.90
21830;DHT22;11077;50.264;6.798;2022-11-25T09:53:40;7.00;99.90
21830;DHT22;11077;50.264;6.798;2022-11-25T09:56:13;7.00;99.90
21830;DHT22;11077;50.264;6.798;2022-11-25T09:58:47;7.00;99.90
21830;DHT22;11077;50.264;6.798;2022-11-25T10:01:20;7.00;99.90
21830;DHT22;11077;50.264;6.798;2022-11-25T10:03:53;7.00;99.90
21830;DHT22;11077;50.264;6.798;2022-11-25T10:06:24;7.00;99.90
21830;DHT22;11077;50.264;6.798;2022-11-25T10:08:55;7.00;99.90
21830;DHT22;11077;50.264;6.798;2022-11-25T10:11:30;7.00;99.90
21830;DHT22;11077;50.264;6.798;2022-11-25T10:14:04;7.00;99.90
21830;DHT22;11077;50.264;6.798;2022-11-25T10:16:44;7.00;99.90
21830;DHT22;11077;50.264;6.798;2022-11-25T10:19:23;7.00;99.90
21830;DHT22;11077;50.264;6.798;2022-11-25T10:21:52;6.90;99.90
21830;DHT22;11077;50.264;6.798;2022-11-25T10:24:19;6.90;99.90
21830;DHT22;11077;50.264;6.798;2022-11-25T10:26:52;6.90;99.90
21830;DHT22;11077;50.264;6.798;2022-11-25T10:29:23;6.90;99.90
21830;DHT22;11077;50.264;6.798;2022-11-25T10:31:56;7.00;99.90
21830;DHT22;11077;50.264;6.798;2022-11-25T10:34:30;7.00;99.90
21830;DHT22;11077;50.264;6.798;2022-11-25T10:37:01;7.10;99.90
21830;DHT22;11077;50.264;6.798;2022-11-25T10:39:33;7.20;99.90
21830;DHT22;11077;50.264;6.798;2022-11-25T10:42:03;7.40;99.90
21830;DHT22;11077;50.264;6.798;2022-11-25T10:44:34;7.50;99.90
21830;DHT22;11077;50.264;6.798;2022-11-25T10:47:14;7.70;99.90
21830;DHT22;11077;50.264;6.798;2022-11-25T10:49:50;7.80;99.90
21830;DHT22;11077;50.264;6.798;2022-11-25T10:52:22;7.90;99.90
21830;DHT22;11077;50.264;6.798;2022-11-25T10:54:55;7.90;99.90
21830;DHT22;11077;50.264;6.798;2022-11-25T10:57:27;8.00;99.90
21830;DHT22;11077;50.264;6.798;2022-11-25T10:59:57;8.00;99.90
21830;DHT22;11077;50.264;6.798;2022-11-25T11:02:28;8.00;99.90
21830;DHT22;11077;50.264;6.798;2022-11-25T11:04:58;8.00;99.90
21830;DHT22;11077;50.264;6.798;2022-11-25T11:07:29;8.00;99.90
21830;DHT22;11077;50.264;6.798;2022-11-25T11:10:18;8.00;99.90
21830;DHT22;11077;50.264;6.798;2022-11-25T11:12:56;7.90;99.90
21830;DHT22;11077;50.264;6.798;2022-11-25T11:15:27;7.90;99.90
21830;DHT22;11077;50.264;6.798;2022-11-25T11:17:57;7.90;99.90
21830;DHT22;11077;50.264;6.798;2022-11-25T11:20:26;7.90;99.90
21830;DHT22;11077;50.264;6.798;2022-11-25T11:22:56;7.80;99.90
21830;DHT22;11077;50.264;6.798;2022-11-25T11:25:27;7.90;99.90
21830;DHT22;11077;50.264;6.798;2022-11-25T11:27:56;7.80;99.90
21830;DHT22;11077;50.264;6.798;2022-11-25T11:30:25;7.90;99.90
21830;DHT22;11077;50.264;6.798;2022-11-25T11:33:03;7.90;99.90
21830;DHT22;11077;50.264;6.798;2022-11-25T11:35:51;8.10;99.90
21830;DHT22;11077;50.264;6.798;2022-11-25T11:38:27;8.10;99.90
21830;DHT22;11077;50.264;6.798;2022-11-25T11:41:08;8.10;99.90
21830;DHT22;11077;50.264;6.798;2022-11-25T11:43:49;8.20;99.90
21830;DHT22;11077;50.264;6.798;2022-11-25T11:46:31;8.20;99.90
21830;DHT22;11077;50.264;6.798;2022-11-25T11:49:20;8.20;99.90
21830;DHT22;11077;50.264;6.798;2022-11-25T11:51:54;8.10;99.90
21830;DHT22;11077;50.264;6.798;2022-11-25T11:54:30;8.10;99.90
21830;DHT22;11077;50.264;6.798;2022-11-25T11:57:04;8.10;99.90
21830;DHT22;11077;50.264;6.798;2022-11-25T11:59:48;8.00;99.90
21830;DHT22;11077;50.264;6.798;2022-11-25T12:02:35;7.90;99.90
21830;DHT22;11077;50.264;6.798;2022-11-25T12:05:16;7.90;99.90
21830;DHT22;11077;50.264;6.798;2022-11-25T12:07:53;7.90;99.90
21830;DHT22;11077;50.264;6.798;2022-11-25T12:10:27;7.90;99.90
21830;DHT22;11077;50.264;6.798;2022-11-25T12:12:59;7.90;99.90
21830;DHT22;11077;50.264;6.798;2022-11-25T12:15:36;7.90;99.90
21830;DHT22;11077;50.264;6.798;2022-11-25T12:18:13;8.00;99.90
21830;DHT22;11077;50.264;6.798;2022-11-25T12:20:50;8.00;99.90
21830;DHT22;11077;50.264;6.798;2022-11-25T12:23:25;8.10;99.90
21830;DHT22;11077;50.264;6.798;2022-11-25T12:25:57;8.10;99.90
21830;DHT22;11077;50.264;6.798;2022-11-25T12:28:32;8.20;99.90
21830;DHT22;11077;50.264;6.798;2022-11-25T12:31:11;8.20;99.90
21830;DHT22;11077;50.264;6.798;2022-11-25T12:33:52;8.20;99.90
21830;DHT22;11077;50.264;6.798;2022-11-25T12:36:30;8.20;99.90
21830;DHT22;11077;50.264;6.798;2022-11-25T12:39:01;8.30;99.90
21830;DHT22;11077;50.264;6.798;2022-11-25T12:41:37;8.20;99.90
21830;DHT22;11077;50.264;6.798;2022-11-25T12:44:11;8.20;99.90
21830;DHT22;11077;50.264;6.798;2022-11-25T12:46:43;8.20;99.90
21830;DHT22;11077;50.264;6.798;2022-11-25T12:49:16;8.30;99.90
21830;DHT22;11077;50.264;6.798;2022-11-25T12:52:07;8.30;99.90
21830;DHT22;11077;50.264;6.798;2022-11-25T12:55:01;8.30;99.90
21830;DHT22;11077;50.264;6.798;2022-11-25T13:00:35;8.40;99.90
21830;DHT22;11077;50.264;6.798;2022-11-25T13:06:24;8.40;99.90
21830;DHT22;11077;50.264;6.798;2022-11-25T13:08:59;8.40;99.90
21830;DHT22;11077;50.264;6.798;2022-11-25T13:11:51;8.40;99.90
21830;DHT22;11077;50.264;6.798;2022-11-25T13:14:27;8.30;99.90
21830;DHT22;11077;50.264;6.798;2022-11-25T13:16:56;8.30;99.90
21830;DHT22;11077;50.264;6.798;2022-11-25T13:19:24;8.10;99.90
21830;DHT22;11077;50.264;6.798;2022-11-25T13:21:59;8.10;99.90
21830;DHT22;11077;50.264;6.798;2022-11-25T13:24:31;8.00;99.90
21830;DHT22;11077;50.264;6.798;2022-11-25T13:26:58;8.00;99.90
21830;DHT22;11077;50.264;6.798;2022-11-25T13:29:57;8.00;99.90
21830;DHT22;11077;50.264;6.798;2022-11-25T13:32:31;8.10;99.90
21830;DHT22;11077;50.264;6.798;2022-11-25T13:38:00;8.20;99.90
21830;DHT22;11077;50.264;6.798;2022-11-25T13:40:36;8.20;99.90
21830;DHT22;11077;50.264;6.798;2022-11-25T13:43:10;8.30;99.90
21830;DHT22;11077;50.264;6.798;2022-11-25T13:45:45;8.30;99.90
21830;DHT22;11077;50.264;6.798;2022-11-25T13:48:17;8.30;99.90
21830;DHT22;11077;50.264;6.798;2022-11-25T13:50:46;8.30;99.90
21830;DHT22;11077;50.264;6.798;2022-11-25T13:53:21;8.50;99.90
21830;DHT22;11077;50.264;6.798;2022-11-25T13:55:51;8.50;99.90
21830;DHT22;11077;50.264;6.798;2022-11-25T13:58:22;8.50;99.90
21830;DHT22;11077;50.264;6.798;2022-11-25T14:01:18;8.60;99.90
21830;DHT22;11077;50.264;6.798;2022-11-25T14:03:52;8.50;99.90
21830;DHT22;11077;50.264;6.798;2022-11-25T14:06:34;8.50;99.90
21830;DHT22;11077;50.264;6.798;2022-11-25T14:09:08;8.50;99.90
21830;DHT22;11077;50.264;6.798;2022-11-25T14:11:54;8.50;99.90
21830;DHT22;11077;50.264;6.798;2022-11-25T14:14:43;8.40;99.90
21830;DHT22;11077;50.264;6.798;2022-11-25T14:17:37;8.40;99.90
21830;DHT22;11077;50.264;6.798;2022-11-25T14:20:26;8.30;99.90
21830;DHT22;11077;50.264;6.798;2022-11-25T14:26:09;8.20;99.90
21830;DHT22;11077;50.264;6.798;2022-11-25T14:28:44;8.30;99.90
21830;DHT22;11077;50.264;6.798;2022-11-25T14:31:15;8.20;99.90
21830;DHT22;11077;50.264;6.798;2022-11-25T14:33:49;8.10;99.90
21830;DHT22;11077;50.264;6.798;2022-11-25T14:36:22;8.10;99.90
21830;DHT22;11077;50.264;6.798;2022-11-25T14:38:54;8.10;99.90
21830;DHT22;11077;50.264;6.798;2022-11-25T14:41:29;8.10;99.90
21830;DHT22;11077;50.264;6.798;2022-11-25T14:44:03;8.00;99.90
21830;DHT22;11077;50.264;6.798;2022-11-25T14:46:31;8.00;99.90
21830;DHT22;11077;50.264;6.798;2022-11-25T14:49:00;8.00;99.90
21830;DHT22;11077;50.264;6.798;2022-11-25T14:51:34;8.00;99.90
21830;DHT22;11077;50.264;6.798;2022-11-25T14:54:02;8.10;99.90
21830;DHT22;11077;50.264;6.798;2022-11-25T14:56:34;8.10;99.90
21830;DHT22;11077;50.264;6.798;2022-11-25T14:59:06;8.00;99.90
21830;DHT22;11077;50.264;6.798;2022-11-25T15:01:36;8.00;99.90
21830;DHT22;11077;50.264;6.798;2022-11-25T15:04:09;7.90;99.90
21830;DHT22;11077;50.264;6.798;2022-11-25T15:06:39;7.90;99.90
21830;DHT22;11077;50.264;6.798;2022-11-25T15:09:19;7.70;99.90
21830;DHT22;11077;50.264;6.798;2022-11-25T15:11:49;7.70;99.90
21830;DHT22;11077;50.264;6.798;2022-11-25T15:14:23;7.70;99.90
21830;DHT22;11077;50.264;6.798;2022-11-25T15:16:51;7.60;99.90
21830;DHT22;11077;50.264;6.798;2022-11-25T15:19:21;7.60;99.90
21830;DHT22;11077;50.264;6.798;2022-11-25T15:21:57;7.50;99.90
21830;DHT22;11077;50.264;6.798;2022-11-25T15:24:39;7.50;99.90
21830;DHT22;11077;50.264;6.798;2022-11-25T15:27:17;7.50;99.90
21830;DHT22;11077;50.264;6.798;2022-11-25T15:29:47;7.40;99.90
21830;DHT22;11077;50.264;6.798;2022-11-25T15:32:18;7.30;99.90
21830;DHT22;11077;50.264;6.798;2022-11-25T15:34:46;7.30;99.90
21830;DHT22;11077;50.264;6.798;2022-11-25T15:37:15;7.30;99.90
21830;DHT22;11077;50.264;6.798;2022-11-25T15:39:43;7.30;99.90
21830;DHT22;11077;50.264;6.798;2022-11-25T15:42:16;7.20;99.90
21830;DHT22;11077;50.264;6.798;2022-11-25T15:44:51;7.30;99.90
21830;DHT22;11077;50.264;6.798;2022-11-25T15:47:23;7.30;99.90
21830;DHT22;11077;50.264;6.798;2022-11-25T15:49:57;7.30;99.90
21830;DHT22;11077;50.264;6.798;2022-11-25T15:52:27;7.30;99.90
21830;DHT22;11077;50.264;6.798;2022-11-25T15:54:59;7.30;99.90
21830;DHT22;11077;50.264;6.798;2022-11-25T15:57:31;7.30;99.90
21830;DHT22;11077;50.264;6.798;2022-11-25T16:00:13;7.30;99.90
21830;DHT22;11077;50.264;6.798;2022-11-25T16:02:52;7.40;99.90
21830;DHT22;11077;50.264;6.798;2022-11-25T16:05:37;7.40;99.90
21830;DHT22;11077;50.264;6.798;2022-11-25T16:08:34;7.40;99.90
21830;DHT22;11077;50.264;6.798;2022-11-25T16:11:13;7.30;99.90
21830;DHT22;11077;50.264;6.798;2022-11-25T16:13:44;7.30;99.90
21830;DHT22;11077;50.264;6.798;2022-11-25T16:16:28;7.30;99.90
21830;DHT22;11077;50.264;6.798;2022-11-25T16:19:04;7.30;99.90
21830;DHT22;11077;50.264;6.798;2022-11-25T16:21:45;7.30;99.90
21830;DHT22;11077;50.264;6.798;2022-11-25T16:24:32;7.30;99.90
21830;DHT22;11077;50.264;6.798;2022-11-25T16:27:01;7.30;99.90